sensor_id;sensor_type;location;lat;lon;timestamp;pressure;altitude;pressure_sealevel;temperature;humidity
72038;BME280;59900;50.788;12.904;2022-08-03T00:01:40;97697.31;;;20.15;71.11
72038;BME280;59900;50.788;12.904;2022-08-03T00:04:06;97702.13;;;20.13;71.22
72038;BME280;59900;50.788;12.904;2022-08-03T00:06:32;97700.19;;;20.08;71.95
72038;BME280;59900;50.788;12.904;2022-08-03T00:08:57;97707.38;;;20.08;71.72
72038;BME280;59900;50.788;12.904;2022-08-03T00:11:23;97698.03;;;20.05;70.95
72038;BME280;59900;50.788;12.904;2022-08-03T00:13:49;97696.13;;;20.01;70.80
72038;BME280;59900;50.788;12.904;2022-08-03T00:16:14;97697.44;;;19.98;70.82
72038;BME280;59900;50.788;12.904;2022-08-03T00:18:40;97698.94;;;19.89;71.02
72038;BME280;59900;50.788;12.904;2022-08-03T00:21:05;97700.50;;;19.85;70.58
72038;BME280;59900;50.788;12.904;2022-08-03T00:23:31;97699.41;;;19.81;70.74
72038;BME280;59900;50.788;12.904;2022-08-03T00:25:56;97700.41;;;19.75;71.01
72038;BME280;59900;50.788;12.904;2022-08-03T00:28:22;97694.97;;;19.70;71.07
72038;BME280;59900;50.788;12.904;2022-08-03T00:30:47;97705.41;;;19.72;71.24
72038;BME280;59900;50.788;12.904;2022-08-03T00:33:12;97701.13;;;19.71;71.64
72038;BME280;59900;50.788;12.904;2022-08-03T00:35:37;97704.06;;;19.69;71.38
72038;BME280;59900;50.788;12.904;2022-08-03T00:38:03;97704.88;;;19.70;71.66
72038;BME280;59900;50.788;12.904;2022-08-03T00:40:30;97706.72;;;19.69;72.13
72038;BME280;59900;50.788;12.904;2022-08-03T00:42:58;97702.13;;;19.65;72.67
72038;BME280;59900;50.788;12.904;2022-08-03T00:45:25;97706.59;;;19.59;72.44
72038;BME280;59900;50.788;12.904;2022-08-03T00:47:51;97695.13;;;19.58;73.03
72038;BME280;59900;50.788;12.904;2022-08-03T00:50:18;97693.53;;;19.58;72.85
72038;BME280;59900;50.788;12.904;2022-08-03T00:52:44;97701.22;;;19.54;72.61
72038;BME280;59900;50.788;12.904;2022-08-03T00:55:10;97704.06;;;19.47;72.98
72038;BME280;59900;50.788;12.904;2022-08-03T00:57:35;97701.41;;;19.47;72.72
72038;BME280;59900;50.788;12.904;2022-08-03T01:00:01;97712.00;;;19.42;73.18
72038;BME280;59900;50.788;12.904;2022-08-03T01:02:30;97699.38;;;19.38;73.13
72038;BME280;59900;50.788;12.904;2022-08-03T01:04:55;97697.94;;;19.30;73.57
72038;BME280;59900;50.788;12.904;2022-08-03T01:07:32;97700.47;;;19.20;73.86
72038;BME280;59900;50.788;12.904;2022-08-03T01:10:12;97709.38;;;19.09;73.63
72038;BME280;59900;50.788;12.904;2022-08-03T01:15:45;97706.59;;;18.99;74.51
72038;BME280;59900;50.788;12.904;2022-08-03T01:18:21;97702.00;;;18.94;74.60
72038;BME280;59900;50.788;12.904;2022-08-03T01:20:54;97698.19;;;18.90;74.35
72038;BME280;59900;50.788;12.904;2022-08-03T01:23:45;97702.16;;;18.88;74.62
72038;BME280;59900;50.788;12.904;2022-08-03T01:29:47;97696.69;;;18.78;73.80
72038;BME280;59900;50.788;12.904;2022-08-03T01:32:19;97691.59;;;18.76;74.26
72038;BME280;59900;50.788;12.904;2022-08-03T01:34:51;97689.75;;;18.77;74.10
72038;BME280;59900;50.788;12.904;2022-08-03T01:37:23;97697.50;;;18.78;74.56
72038;BME280;59900;50.788;12.904;2022-08-03T01:39:54;97699.34;;;18.78;74.05
72038;BME280;59900;50.788;12.904;2022-08-03T01:42:20;97695.63;;;18.79;73.52
72038;BME280;59900;50.788;12.904;2022-08-03T01:44:46;97698.28;;;18.79;73.86
72038;BME280;59900;50.788;12.904;2022-08-03T01:47:15;97690.31;;;18.79;73.64
72038;BME280;59900;50.788;12.904;2022-08-03T01:49:44;97699.84;;;18.75;74.06
72038;BME280;59900;50.788;12.904;2022-08-03T01:52:11;97697.19;;;18.75;73.82
72038;BME280;59900;50.788;12.904;2022-08-03T01:54:42;97688.66;;;18.73;74.11
72038;BME280;59900;50.788;12.904;2022-08-03T01:57:09;97692.09;;;18.73;73.75
72038;BME280;59900;50.788;12.904;2022-08-03T01:59:35;97691.31;;;18.73;73.84
72038;BME280;59900;50.788;12.904;2022-08-03T02:02:04;97690.50;;;18.72;73.99
72038;BME280;59900;50.788;12.904;2022-08-03T02:04:30;97696.84;;;18.71;73.85
72038;BME280;59900;50.788;12.904;2022-08-03T02:07:01;97694.44;;;18.70;74.70
72038;BME280;59900;50.788;12.904;2022-08-03T02:09:28;97695.50;;;18.69;73.92
72038;BME280;59900;50.788;12.904;2022-08-03T02:11:55;97691.47;;;18.66;74.31
72038;BME280;59900;50.788;12.904;2022-08-03T02:14:22;97690.09;;;18.64;74.27
72038;BME280;59900;50.788;12.904;2022-08-03T02:16:49;97693.47;;;18.59;74.41
72038;BME280;59900;50.788;12.904;2022-08-03T02:19:15;97691.56;;;18.55;74.75
72038;BME280;59900;50.788;12.904;2022-08-03T02:21:42;97691.69;;;18.48;74.98
72038;BME280;59900;50.788;12.904;2022-08-03T02:24:09;97693.47;;;18.42;75.04
72038;BME280;59900;50.788;12.904;2022-08-03T02:26:37;97686.19;;;18.38;75.04
72038;BME280;59900;50.788;12.904;2022-08-03T02:29:12;97691.44;;;18.33;75.21
72038;BME280;59900;50.788;12.904;2022-08-03T02:31:39;97689.50;;;18.28;75.55
72038;BME280;59900;50.788;12.904;2022-08-03T02:34:11;97694.50;;;18.25;75.80
72038;BME280;59900;50.788;12.904;2022-08-03T02:36:38;97696.81;;;18.21;76.01
72038;BME280;59900;50.788;12.904;2022-08-03T02:39:06;97699.72;;;18.20;76.33
72038;BME280;59900;50.788;12.904;2022-08-03T02:41:41;97694.63;;;18.18;75.87
72038;BME280;59900;50.788;12.904;2022-08-03T02:44:08;97692.78;;;18.19;75.83
72038;BME280;59900;50.788;12.904;2022-08-03T02:46:37;97694.09;;;18.16;76.13
72038;BME280;59900;50.788;12.904;2022-08-03T02:49:04;97696.63;;;18.11;75.88
72038;BME280;59900;50.788;12.904;2022-08-03T02:51:34;97688.34;;;18.08;75.93
72038;BME280;59900;50.788;12.904;2022-08-03T02:54:01;97685.59;;;18.03;76.00
72038;BME280;59900;50.788;12.904;2022-08-03T02:56:27;97683.41;;;18.00;76.10
72038;BME280;59900;50.788;12.904;2022-08-03T02:58:55;97686.06;;;18.00;76.05
72038;BME280;59900;50.788;12.904;2022-08-03T03:01:23;97685.03;;;18.01;76.54
72038;BME280;59900;50.788;12.904;2022-08-03T03:03:50;97687.94;;;17.99;76.29
72038;BME280;59900;50.788;12.904;2022-08-03T03:06:16;97688.72;;;18.00;76.03
72038;BME280;59900;50.788;12.904;2022-08-03T03:08:44;97687.13;;;17.99;76.23
72038;BME280;59900;50.788;12.904;2022-08-03T03:11:10;97686.53;;;17.97;76.06
72038;BME280;59900;50.788;12.904;2022-08-03T03:13:38;97683.31;;;17.95;76.25
72038;BME280;59900;50.788;12.904;2022-08-03T03:16:05;97684.84;;;17.90;76.05
72038;BME280;59900;50.788;12.904;2022-08-03T03:18:32;97685.56;;;17.86;76.26
72038;BME280;59900;50.788;12.904;2022-08-03T03:20:58;97690.19;;;17.90;76.48
72038;BME280;59900;50.788;12.904;2022-08-03T03:23:24;97680.00;;;17.87;76.21
72038;BME280;59900;50.788;12.904;2022-08-03T03:25:51;97688.00;;;17.87;76.82
72038;BME280;59900;50.788;12.904;2022-08-03T03:28:17;97684.53;;;17.87;76.37
72038;BME280;59900;50.788;12.904;2022-08-03T03:30:42;97684.28;;;17.88;76.00
72038;BME280;59900;50.788;12.904;2022-08-03T03:33:08;97677.09;;;17.89;76.06
72038;BME280;59900;50.788;12.904;2022-08-03T03:35:33;97681.59;;;17.88;76.08
72038;BME280;59900;50.788;12.904;2022-08-03T03:37:59;97678.13;;;17.88;76.04
72038;BME280;59900;50.788;12.904;2022-08-03T03:40:25;97676.28;;;17.88;76.52
72038;BME280;59900;50.788;12.904;2022-08-03T03:42:51;97686.13;;;17.88;76.76
72038;BME280;59900;50.788;12.904;2022-08-03T03:45:16;97689.38;;;17.90;76.16
72038;BME280;59900;50.788;12.904;2022-08-03T03:47:41;97684.53;;;17.87;75.85
72038;BME280;59900;50.788;12.904;2022-08-03T03:50:07;97680.72;;;17.83;76.17
72038;BME280;59900;50.788;12.904;2022-08-03T03:52:35;97680.16;;;17.81;76.39
72038;BME280;59900;50.788;12.904;2022-08-03T03:55:00;97680.97;;;17.81;76.06
72038;BME280;59900;50.788;12.904;2022-08-03T03:57:26;97686.28;;;17.81;76.30
72038;BME280;59900;50.788;12.904;2022-08-03T03:59:51;97684.41;;;17.82;76.06
72038;BME280;59900;50.788;12.904;2022-08-03T04:02:17;97680.63;;;17.78;76.00
72038;BME280;59900;50.788;12.904;2022-08-03T04:04:42;97682.72;;;17.76;76.02
72038;BME280;59900;50.788;12.904;2022-08-03T04:07:26;97688.25;;;17.74;76.00
72038;BME280;59900;50.788;12.904;2022-08-03T04:10:17;97680.28;;;17.74;76.35
72038;BME280;59900;50.788;12.904;2022-08-03T04:13:08;97683.41;;;17.71;76.08
72038;BME280;59900;50.788;12.904;2022-08-03T04:15:36;97680.44;;;17.68;76.14
72038;BME280;59900;50.788;12.904;2022-08-03T04:18:02;97680.91;;;17.65;76.10
72038;BME280;59900;50.788;12.904;2022-08-03T04:20:31;97682.06;;;17.69;75.84
72038;BME280;59900;50.788;12.904;2022-08-03T04:22:58;97682.94;;;17.74;76.53
72038;BME280;59900;50.788;12.904;2022-08-03T04:25:27;97694.94;;;17.77;76.17
72038;BME280;59900;50.788;12.904;2022-08-03T04:27:54;97692.38;;;17.82;76.08
72038;BME280;59900;50.788;12.904;2022-08-03T04:30:25;97691.69;;;17.86;77.41
72038;BME280;59900;50.788;12.904;2022-08-03T04:32:52;97696.28;;;17.91;77.33
72038;BME280;59900;50.788;12.904;2022-08-03T04:35:18;97705.16;;;17.97;76.66
72038;BME280;59900;50.788;12.904;2022-08-03T04:37:47;97689.53;;;18.00;76.69
72038;BME280;59900;50.788;12.904;2022-08-03T04:40:17;97699.13;;;18.01;77.11
72038;BME280;59900;50.788;12.904;2022-08-03T04:42:45;97705.00;;;18.03;77.89
72038;BME280;59900;50.788;12.904;2022-08-03T04:45:14;97697.63;;;18.05;76.52
72038;BME280;59900;50.788;12.904;2022-08-03T04:47:40;97705.13;;;18.08;76.88
72038;BME280;59900;50.788;12.904;2022-08-03T04:50:06;97701.72;;;18.13;77.49
72038;BME280;59900;50.788;12.904;2022-08-03T04:52:33;97710.59;;;18.18;76.73
72038;BME280;59900;50.788;12.904;2022-08-03T04:54:58;97714.63;;;18.21;76.55
72038;BME280;59900;50.788;12.904;2022-08-03T04:57:24;97714.97;;;18.24;76.98
72038;BME280;59900;50.788;12.904;2022-08-03T04:59:53;97714.22;;;18.29;76.37
72038;BME280;59900;50.788;12.904;2022-08-03T05:02:22;97714.34;;;18.34;76.50
72038;BME280;59900;50.788;12.904;2022-08-03T05:04:48;97715.22;;;18.39;76.79
72038;BME280;59900;50.788;12.904;2022-08-03T05:07:14;97714.25;;;18.45;76.08
72038;BME280;59900;50.788;12.904;2022-08-03T05:09:40;97713.56;;;18.50;76.18
72038;BME280;59900;50.788;12.904;2022-08-03T05:12:06;97720.84;;;18.55;76.18
72038;BME280;59900;50.788;12.904;2022-08-03T05:14:32;97720.09;;;18.59;76.27
72038;BME280;59900;50.788;12.904;2022-08-03T05:16:57;97715.91;;;18.63;75.45
72038;BME280;59900;50.788;12.904;2022-08-03T05:19:23;97717.03;;;18.67;75.44
72038;BME280;59900;50.788;12.904;2022-08-03T05:21:48;97718.97;;;18.72;75.45
72038;BME280;59900;50.788;12.904;2022-08-03T05:24:14;97707.03;;;18.74;75.07
72038;BME280;59900;50.788;12.904;2022-08-03T05:26:39;97708.72;;;18.80;75.33
72038;BME280;59900;50.788;12.904;2022-08-03T05:29:04;97715.72;;;18.86;75.09
72038;BME280;59900;50.788;12.904;2022-08-03T05:31:30;97712.31;;;18.91;75.68
72038;BME280;59900;50.788;12.904;2022-08-03T05:33:55;97717.25;;;18.99;75.62
72038;BME280;59900;50.788;12.904;2022-08-03T05:36:21;97705.03;;;19.03;75.48
72038;BME280;59900;50.788;12.904;2022-08-03T05:38:46;97710.19;;;19.10;74.93
72038;BME280;59900;50.788;12.904;2022-08-03T05:41:11;97703.41;;;19.19;75.18
72038;BME280;59900;50.788;12.904;2022-08-03T05:43:36;97707.75;;;19.25;74.82
72038;BME280;59900;50.788;12.904;2022-08-03T05:46:02;97714.75;;;19.31;74.47
72038;BME280;59900;50.788;12.904;2022-08-03T05:48:27;97711.69;;;19.39;75.46
72038;BME280;59900;50.788;12.904;2022-08-03T05:50:53;97714.97;;;19.46;75.75
72038;BME280;59900;50.788;12.904;2022-08-03T05:53:18;97710.81;;;19.55;76.02
72038;BME280;59900;50.788;12.904;2022-08-03T05:55:43;97713.53;;;19.60;75.87
72038;BME280;59900;50.788;12.904;2022-08-03T05:58:08;97709.38;;;19.69;76.19
72038;BME280;59900;50.788;12.904;2022-08-03T06:00:34;97712.41;;;19.78;75.46
72038;BME280;59900;50.788;12.904;2022-08-03T06:02:59;97713.81;;;19.85;75.55
72038;BME280;59900;50.788;12.904;2022-08-03T06:05:24;97719.78;;;19.92;76.44
72038;BME280;59900;50.788;12.904;2022-08-03T06:07:52;97711.81;;;19.97;76.08
72038;BME280;59900;50.788;12.904;2022-08-03T06:10:17;97714.53;;;20.02;75.92
72038;BME280;59900;50.788;12.904;2022-08-03T06:12:42;97722.59;;;20.07;75.89
72038;BME280;59900;50.788;12.904;2022-08-03T06:15:11;97720.53;;;20.14;75.48
72038;BME280;59900;50.788;12.904;2022-08-03T06:17:47;97719.28;;;20.22;75.30
72038;BME280;59900;50.788;12.904;2022-08-03T06:20:15;97720.72;;;20.30;73.13
72038;BME280;59900;50.788;12.904;2022-08-03T06:22:41;97724.53;;;20.39;74.29
72038;BME280;59900;50.788;12.904;2022-08-03T06:25:07;97725.13;;;20.46;75.66
72038;BME280;59900;50.788;12.904;2022-08-03T06:27:32;97724.91;;;20.52;73.24
72038;BME280;59900;50.788;12.904;2022-08-03T06:29:57;97719.91;;;20.61;72.43
72038;BME280;59900;50.788;12.904;2022-08-03T06:32:22;97718.38;;;20.70;71.40
72038;BME280;59900;50.788;12.904;2022-08-03T06:34:48;97720.81;;;20.77;72.00
72038;BME280;59900;50.788;12.904;2022-08-03T06:37:13;97715.28;;;20.83;71.27
72038;BME280;59900;50.788;12.904;2022-08-03T06:39:38;97720.13;;;20.91;70.95
72038;BME280;59900;50.788;12.904;2022-08-03T06:42:04;97718.88;;;20.99;71.28
72038;BME280;59900;50.788;12.904;2022-08-03T06:44:29;97724.53;;;21.07;69.61
72038;BME280;59900;50.788;12.904;2022-08-03T06:46:54;97718.72;;;21.15;70.06
72038;BME280;59900;50.788;12.904;2022-08-03T06:49:20;97721.94;;;21.22;70.01
72038;BME280;59900;50.788;12.904;2022-08-03T06:51:45;97726.00;;;21.30;69.60
72038;BME280;59900;50.788;12.904;2022-08-03T06:54:10;97724.69;;;21.38;68.84
72038;BME280;59900;50.788;12.904;2022-08-03T06:56:36;97727.69;;;21.46;69.15
72038;BME280;59900;50.788;12.904;2022-08-03T06:59:01;97730.66;;;21.55;68.41
72038;BME280;59900;50.788;12.904;2022-08-03T07:01:27;97732.03;;;21.62;67.78
72038;BME280;59900;50.788;12.904;2022-08-03T07:03:52;97729.66;;;21.71;67.30
72038;BME280;59900;50.788;12.904;2022-08-03T07:06:18;97728.34;;;21.78;67.82
72038;BME280;59900;50.788;12.904;2022-08-03T07:08:44;97736.41;;;21.84;67.83
72038;BME280;59900;50.788;12.904;2022-08-03T07:11:09;97733.78;;;21.89;67.37
72038;BME280;59900;50.788;12.904;2022-08-03T07:13:34;97727.38;;;21.95;66.64
72038;BME280;59900;50.788;12.904;2022-08-03T07:15:59;97732.47;;;22.01;66.25
72038;BME280;59900;50.788;12.904;2022-08-03T07:18:25;97727.41;;;22.10;66.13
72038;BME280;59900;50.788;12.904;2022-08-03T07:20:50;97726.34;;;22.21;65.69
72038;BME280;59900;50.788;12.904;2022-08-03T07:23:15;97727.69;;;22.28;65.56
72038;BME280;59900;50.788;12.904;2022-08-03T07:25:41;97725.28;;;22.32;63.95
72038;BME280;59900;50.788;12.904;2022-08-03T07:28:06;97727.72;;;22.39;63.60
72038;BME280;59900;50.788;12.904;2022-08-03T07:30:32;97721.81;;;22.47;63.70
72038;BME280;59900;50.788;12.904;2022-08-03T07:32:57;97727.72;;;22.54;64.22
72038;BME280;59900;50.788;12.904;2022-08-03T07:35:23;97728.53;;;22.59;63.28
72038;BME280;59900;50.788;12.904;2022-08-03T07:37:48;97731.47;;;22.63;62.44
72038;BME280;59900;50.788;12.904;2022-08-03T07:40:13;97732.03;;;22.70;62.05
72038;BME280;59900;50.788;12.904;2022-08-03T07:42:38;97725.88;;;22.74;61.13
72038;BME280;59900;50.788;12.904;2022-08-03T07:45:04;97722.91;;;22.76;60.18
72038;BME280;59900;50.788;12.904;2022-08-03T07:47:30;97721.84;;;22.82;56.80
72038;BME280;59900;50.788;12.904;2022-08-03T07:49:56;97717.84;;;22.90;58.32
72038;BME280;59900;50.788;12.904;2022-08-03T07:52:21;97717.84;;;22.90;56.81
72038;BME280;59900;50.788;12.904;2022-08-03T07:55:06;97729.88;;;22.92;57.14
72038;BME280;59900;50.788;12.904;2022-08-03T07:57:32;97724.22;;;22.99;57.56
72038;BME280;59900;50.788;12.904;2022-08-03T07:59:57;97714.84;;;23.11;57.70
72038;BME280;59900;50.788;12.904;2022-08-03T08:02:22;97722.06;;;23.21;57.43
72038;BME280;59900;50.788;12.904;2022-08-03T08:04:48;97721.78;;;23.22;56.77
72038;BME280;59900;50.788;12.904;2022-08-03T08:07:13;97714.25;;;23.29;56.55
72038;BME280;59900;50.788;12.904;2022-08-03T08:12:04;97707.78;;;23.46;56.58
72038;BME280;59900;50.788;12.904;2022-08-03T08:14:29;97715.25;;;23.59;56.04
72038;BME280;59900;50.788;12.904;2022-08-03T08:16:54;97707.72;;;23.61;56.48
72038;BME280;59900;50.788;12.904;2022-08-03T08:19:20;97712.00;;;23.67;55.99
72038;BME280;59900;50.788;12.904;2022-08-03T08:21:45;97711.97;;;23.77;55.59
72038;BME280;59900;50.788;12.904;2022-08-03T08:24:10;97713.28;;;23.79;55.28
72038;BME280;59900;50.788;12.904;2022-08-03T08:26:36;97713.81;;;23.81;55.24
72038;BME280;59900;50.788;12.904;2022-08-03T08:29:02;97711.56;;;23.98;53.83
72038;BME280;59900;50.788;12.904;2022-08-03T08:31:27;97715.81;;;24.05;53.68
72038;BME280;59900;50.788;12.904;2022-08-03T08:33:53;97711.25;;;24.05;53.91
72038;BME280;59900;50.788;12.904;2022-08-03T08:36:18;97713.69;;;24.02;54.40
72038;BME280;59900;50.788;12.904;2022-08-03T08:38:43;97711.81;;;24.02;53.56
72038;BME280;59900;50.788;12.904;2022-08-03T08:41:13;97711.00;;;24.02;52.55
72038;BME280;59900;50.788;12.904;2022-08-03T08:43:38;97714.75;;;24.06;53.02
72038;BME280;59900;50.788;12.904;2022-08-03T08:46:04;97713.94;;;24.10;53.11
72038;BME280;59900;50.788;12.904;2022-08-03T08:48:34;97707.50;;;24.06;52.33
72038;BME280;59900;50.788;12.904;2022-08-03T08:51:00;97710.44;;;24.05;52.48
72038;BME280;59900;50.788;12.904;2022-08-03T08:53:27;97704.00;;;24.06;51.37
72038;BME280;59900;50.788;12.904;2022-08-03T08:55:55;97716.38;;;24.07;51.34
72038;BME280;59900;50.788;12.904;2022-08-03T08:58:23;97708.00;;;24.13;51.62
72038;BME280;59900;50.788;12.904;2022-08-03T09:00:49;97700.72;;;24.24;50.73
72038;BME280;59900;50.788;12.904;2022-08-03T09:03:14;97707.34;;;24.31;50.13
72038;BME280;59900;50.788;12.904;2022-08-03T09:05:42;97703.28;;;24.39;50.12
72038;BME280;59900;50.788;12.904;2022-08-03T09:08:07;97706.50;;;24.41;50.57
72038;BME280;59900;50.788;12.904;2022-08-03T09:10:33;97710.75;;;24.47;50.47
72038;BME280;59900;50.788;12.904;2022-08-03T09:12:59;97710.50;;;24.43;50.09
72038;BME280;59900;50.788;12.904;2022-08-03T09:15:27;97700.81;;;24.47;50.44
72038;BME280;59900;50.788;12.904;2022-08-03T09:17:55;97701.25;;;24.54;50.07
72038;BME280;59900;50.788;12.904;2022-08-03T09:20:22;97694.19;;;24.64;50.19
72038;BME280;59900;50.788;12.904;2022-08-03T09:23:02;97708.13;;;24.71;50.31
72038;BME280;59900;50.788;12.904;2022-08-03T09:25:36;97707.28;;;24.75;49.53
72038;BME280;59900;50.788;12.904;2022-08-03T09:28:10;97697.78;;;24.88;48.99
72038;BME280;59900;50.788;12.904;2022-08-03T09:30:39;97700.16;;;24.94;48.53
72038;BME280;59900;50.788;12.904;2022-08-03T09:33:11;97705.47;;;24.99;48.02
72038;BME280;59900;50.788;12.904;2022-08-03T09:35:47;97709.41;;;25.07;48.25
72038;BME280;59900;50.788;12.904;2022-08-03T09:38:20;97699.94;;;25.15;46.75
72038;BME280;59900;50.788;12.904;2022-08-03T09:40:50;97704.44;;;25.19;46.21
72038;BME280;59900;50.788;12.904;2022-08-03T09:43:16;97696.34;;;25.24;45.55
72038;BME280;59900;50.788;12.904;2022-08-03T09:45:41;97702.09;;;25.36;47.55
72038;BME280;59900;50.788;12.904;2022-08-03T09:48:26;97711.28;;;25.35;45.55
72038;BME280;59900;50.788;12.904;2022-08-03T09:50:56;97700.44;;;25.40;45.71
72038;BME280;59900;50.788;12.904;2022-08-03T09:53:22;97691.22;;;25.46;44.20
72038;BME280;59900;50.788;12.904;2022-08-03T09:56:08;97684.66;;;25.57;44.37
72038;BME280;59900;50.788;12.904;2022-08-03T09:58:44;97690.72;;;25.68;44.91
72038;BME280;59900;50.788;12.904;2022-08-03T10:01:10;97689.69;;;25.64;42.70
72038;BME280;59900;50.788;12.904;2022-08-03T10:03:38;97696.69;;;25.65;41.57
72038;BME280;59900;50.788;12.904;2022-08-03T10:06:17;97694.97;;;25.74;41.40
72038;BME280;59900;50.788;12.904;2022-08-03T10:09:10;97684.63;;;26.00;41.14
72038;BME280;59900;50.788;12.904;2022-08-03T10:11:37;97691.56;;;26.06;43.29
72038;BME280;59900;50.788;12.904;2022-08-03T10:14:04;97684.28;;;26.06;41.35
72038;BME280;59900;50.788;12.904;2022-08-03T10:16:38;97682.31;;;26.12;41.17
72038;BME280;59900;50.788;12.904;2022-08-03T10:19:05;97680.06;;;26.19;41.75
72038;BME280;59900;50.788;12.904;2022-08-03T10:21:34;97670.81;;;26.25;40.65
72038;BME280;59900;50.788;12.904;2022-08-03T10:24:04;97674.44;;;26.34;40.10
72038;BME280;59900;50.788;12.904;2022-08-03T10:26:32;97675.88;;;26.45;41.02
72038;BME280;59900;50.788;12.904;2022-08-03T10:29:00;97675.88;;;26.45;41.25
72038;BME280;59900;50.788;12.904;2022-08-03T10:31:32;97673.19;;;26.45;37.36
72038;BME280;59900;50.788;12.904;2022-08-03T10:34:00;97674.28;;;26.44;38.33
72038;BME280;59900;50.788;12.904;2022-08-03T10:36:29;97669.50;;;26.41;37.36
72038;BME280;59900;50.788;12.904;2022-08-03T10:38:55;97673.41;;;26.49;38.62
72038;BME280;59900;50.788;12.904;2022-08-03T10:41:23;97671.72;;;26.53;38.29
72038;BME280;59900;50.788;12.904;2022-08-03T10:44:17;97671.38;;;26.73;37.46
72038;BME280;59900;50.788;12.904;2022-08-03T10:46:44;97668.81;;;26.82;35.98
72038;BME280;59900;50.788;12.904;2022-08-03T10:49:15;97655.06;;;26.97;36.84
72038;BME280;59900;50.788;12.904;2022-08-03T10:51:45;97654.88;;;27.07;37.00
72038;BME280;59900;50.788;12.904;2022-08-03T10:57:44;97655.28;;;27.14;37.50
72038;BME280;59900;50.788;12.904;2022-08-03T11:00:11;97646.09;;;27.15;37.36
72038;BME280;59900;50.788;12.904;2022-08-03T11:05:32;97650.47;;;27.24;37.76
72038;BME280;59900;50.788;12.904;2022-08-03T11:08:17;97643.88;;;27.31;37.08
72038;BME280;59900;50.788;12.904;2022-08-03T11:10:43;97642.47;;;27.33;37.38
72038;BME280;59900;50.788;12.904;2022-08-03T11:13:09;97644.72;;;27.45;37.10
72038;BME280;59900;50.788;12.904;2022-08-03T11:15:39;97637.59;;;27.49;36.38
72038;BME280;59900;50.788;12.904;2022-08-03T11:18:08;97640.97;;;27.54;36.71
72038;BME280;59900;50.788;12.904;2022-08-03T11:20:47;97631.69;;;27.60;37.23
72038;BME280;59900;50.788;12.904;2022-08-03T11:23:14;97632.28;;;27.57;36.59
72038;BME280;59900;50.788;12.904;2022-08-03T11:26:09;97636.19;;;27.51;36.73
72038;BME280;59900;50.788;12.904;2022-08-03T11:28:35;97631.91;;;27.50;37.47
72038;BME280;59900;50.788;12.904;2022-08-03T11:34:02;97628.84;;;27.65;36.41
72038;BME280;59900;50.788;12.904;2022-08-03T11:36:28;97631.16;;;27.72;37.81
72038;BME280;59900;50.788;12.904;2022-08-03T11:39:13;97625.22;;;27.83;37.40
72038;BME280;59900;50.788;12.904;2022-08-03T11:41:38;97627.28;;;28.00;38.32
72038;BME280;59900;50.788;12.904;2022-08-03T11:44:03;97622.13;;;28.12;37.45
72038;BME280;59900;50.788;12.904;2022-08-03T11:46:36;97625.09;;;28.24;36.44
72038;BME280;59900;50.788;12.904;2022-08-03T11:49:05;97625.66;;;28.35;37.05
72038;BME280;59900;50.788;12.904;2022-08-03T11:51:31;97620.59;;;28.42;36.96
72038;BME280;59900;50.788;12.904;2022-08-03T11:54:04;97623.69;;;28.49;36.75
72038;BME280;59900;50.788;12.904;2022-08-03T11:56:44;97623.31;;;28.64;36.75
72038;BME280;59900;50.788;12.904;2022-08-03T11:59:10;97622.41;;;28.77;36.90
72038;BME280;59900;50.788;12.904;2022-08-03T12:01:35;97621.88;;;28.98;37.33
72038;BME280;59900;50.788;12.904;2022-08-03T12:04:03;97630.72;;;29.20;36.53
72038;BME280;59900;50.788;12.904;2022-08-03T12:06:31;97622.34;;;29.39;36.52
72038;BME280;59900;50.788;12.904;2022-08-03T12:09:16;97622.84;;;29.41;35.25
72038;BME280;59900;50.788;12.904;2022-08-03T12:11:42;97621.91;;;29.45;34.96
72038;BME280;59900;50.788;12.904;2022-08-03T12:14:07;97616.66;;;29.49;34.24
72038;BME280;59900;50.788;12.904;2022-08-03T12:16:45;97607.91;;;29.69;35.92
72038;BME280;59900;50.788;12.904;2022-08-03T12:19:11;97603.13;;;29.75;34.92
72038;BME280;59900;50.788;12.904;2022-08-03T12:21:45;97605.06;;;29.91;36.16
72038;BME280;59900;50.788;12.904;2022-08-03T12:24:11;97602.84;;;30.02;34.37
72038;BME280;59900;50.788;12.904;2022-08-03T12:26:47;97601.25;;;30.10;34.48
72038;BME280;59900;50.788;12.904;2022-08-03T12:29:20;97597.25;;;30.16;33.58
72038;BME280;59900;50.788;12.904;2022-08-03T12:31:46;97600.09;;;30.36;34.10
72038;BME280;59900;50.788;12.904;2022-08-03T12:34:12;97592.41;;;30.64;34.53
72038;BME280;59900;50.788;12.904;2022-08-03T12:36:52;97592.91;;;31.04;33.50
72038;BME280;59900;50.788;12.904;2022-08-03T12:39:23;97584.16;;;31.28;32.71
72038;BME280;59900;50.788;12.904;2022-08-03T12:41:52;97592.84;;;31.42;31.36
72038;BME280;59900;50.788;12.904;2022-08-03T12:44:29;97581.66;;;31.52;30.28
72038;BME280;59900;50.788;12.904;2022-08-03T12:46:59;97594.66;;;31.67;30.95
72038;BME280;59900;50.788;12.904;2022-08-03T12:49:25;97587.63;;;31.66;30.17
72038;BME280;59900;50.788;12.904;2022-08-03T12:54:18;97591.88;;;31.96;31.64
72038;BME280;59900;50.788;12.904;2022-08-03T12:57:04;97577.47;;;32.16;31.17
72038;BME280;59900;50.788;12.904;2022-08-03T12:59:31;97565.97;;;32.32;30.78
72038;BME280;59900;50.788;12.904;2022-08-03T13:01:57;97565.84;;;32.73;31.45
72038;BME280;59900;50.788;12.904;2022-08-03T13:04:32;97576.31;;;33.19;30.66
72038;BME280;59900;50.788;12.904;2022-08-03T13:07:05;97574.44;;;33.72;30.95
72038;BME280;59900;50.788;12.904;2022-08-03T13:09:41;97567.25;;;34.19;29.75
72038;BME280;59900;50.788;12.904;2022-08-03T13:12:18;97558.91;;;34.44;29.02
72038;BME280;59900;50.788;12.904;2022-08-03T13:14:45;97563.91;;;34.69;29.21
72038;BME280;59900;50.788;12.904;2022-08-03T13:17:11;97555.78;;;35.04;27.63